Time;durP1;ratioP1;P1;durP2;ratioP2;P2;SDS_P1;SDS_P2;PMS_P1;PMS_P2;Temp;Humidity;BMP_temperature;BMP_pressure;BME280_temperature;BME280_humidity;BME280_pressure;Samples;Min_cycle;Max_cycle;Signal;HPM_P1;HPM_P2
2024/02/28 00:00:32;;;;;;;48.00;24.10;;;;;;;8.05;63.16;99118.23;105732;1257;96570;-75
2024/02/28 00:03:19;;;;;;;46.00;23.40;;;;;;;7.99;63.29;99119.45;105289;1257;97546;-75
2024/02/28 00:05:45;;;;;;;42.40;22.10;;;;;;;7.97;63.32;99118.33;105368;1256;97937;-74
2024/02/28 00:08:12;;;;;;;40.50;21.30;;;;;;;7.94;63.22;99118.55;105504;1257;96634;-75
2024/02/28 00:10:38;;;;;;;42.40;21.50;;;;;;;7.88;63.31;99116.59;105686;1254;97298;-76
2024/02/28 00:13:05;;;;;;;;;;;;;;;7.82;63.41;99113.80;105853;1257;96596;-75
2024/02/28 00:15:31;;;;;;;36.90;19.60;;;;;;;7.76;63.67;99111.52;105471;1256;109630;-75
2024/02/28 00:17:58;;;;;;;36.60;20.20;;;;;;;7.70;63.46;99116.95;105231;1255;96696;-76
2024/02/28 00:20:27;;;;;;;41.50;21.10;;;;;;;7.65;63.46;99119.23;105517;1267;97076;-75
2024/02/28 00:22:53;;;;;;;37.60;20.70;;;;;;;7.62;63.53;99116.41;105312;1257;97940;-76
2024/02/28 00:25:20;;;;;;;40.80;21.20;;;;;;;7.58;63.43;99115.91;105823;1265;97944;-76
2024/02/28 00:27:46;;;;;;;41.80;21.30;;;;;;;7.53;63.49;99119.55;105565;1254;97931;-75
2024/02/28 00:30:13;;;;;;;41.50;22.00;;;;;;;7.47;63.67;99119.75;105904;1253;96664;-76
2024/02/28 00:32:40;;;;;;;38.50;21.00;;;;;;;7.40;63.81;99116.59;105822;1251;96594;-76
2024/02/28 00:35:07;;;;;;;44.50;24.50;;;;;;;7.37;63.83;99118.73;105962;1255;96625;-75
2024/02/28 00:37:33;;;;;;;40.30;21.90;;;;;;;7.35;63.79;99122.39;105859;1256;97556;-75
2024/02/28 00:39:59;;;;;;;;;;;;;;;7.34;63.97;99120.15;105549;1251;96670;-75
2024/02/28 00:42:27;;;;;;;42.00;20.60;;;;;;;7.29;63.87;99118.51;105410;1254;96972;-75
2024/02/28 00:44:53;;;;;;;43.60;23.20;;;;;;;7.27;63.64;99116.65;105112;1256;96593;-76
2024/02/28 00:47:20;;;;;;;39.40;20.30;;;;;;;7.24;63.82;99118.59;105180;1256;96681;-76
2024/02/28 00:49:47;;;;;;;33.50;20.10;;;;;;;7.22;64.11;99118.00;105783;1256;96597;-74
2024/02/28 00:52:13;;;;;;;38.50;21.60;;;;;;;7.23;64.18;99118.49;105216;1267;96610;-75
2024/02/28 00:54:40;;;;;;;39.20;21.10;;;;;;;7.25;64.31;99119.60;105533;1254;96589;-75
2024/02/28 00:57:06;;;;;;;37.20;19.20;;;;;;;7.25;64.35;99119.61;105368;1251;96661;-75
2024/02/28 00:59:33;;;;;;;37.50;19.30;;;;;;;7.23;64.22;99119.89;105449;1254;96557;-76
2024/02/28 01:01:59;;;;;;;41.10;21.00;;;;;;;7.19;64.27;99116.44;105565;1256;107671;-75
2024/02/28 01:04:26;;;;;;;35.40;19.90;;;;;;;7.17;64.53;99117.24;105824;1256;96603;-75
2024/02/28 01:06:52;;;;;;;36.60;20.10;;;;;;;7.18;64.68;99114.91;105482;1256;96589;-76
2024/02/28 01:09:19;;;;;;;39.40;20.70;;;;;;;7.18;64.59;99113.11;104944;1251;96586;-76
2024/02/28 01:11:46;;;;;;;34.80;19.20;;;;;;;7.17;64.38;99119.68;105873;1257;96732;-76
2024/02/28 01:14:12;;;;;;;32.90;19.20;;;;;;;7.12;64.16;99118.23;105591;1257;96592;-75
2024/02/28 01:16:39;;;;;;;37.10;20.30;;;;;;;7.07;64.43;99116.61;105739;1255;96581;-76
2024/02/28 01:19:05;;;;;;;;;;;;;;;7.05;64.56;99121.79;105863;1256;96685;-76
2024/02/28 01:21:31;;;;;;;32.70;19.20;;;;;;;7.05;64.92;99123.02;105582;1257;97038;-75
2024/02/28 01:23:58;;;;;;;36.00;19.00;;;;;;;7.08;64.96;99119.87;105733;1254;96600;-75
2024/02/28 01:26:24;;;;;;;;;;;;;;;7.09;65.05;99120.53;105777;1256;96711;-75
2024/02/28 01:28:51;;;;;;;36.30;19.30;;;;;;;7.04;65.07;99119.21;105493;1264;96590;-79
2024/02/28 01:31:17;;;;;;;;;;;;;;;7.04;65.14;99117.67;105628;1257;96586;-76
2024/02/28 01:33:43;;;;;;;34.50;18.30;;;;;;;7.05;65.40;99119.16;106412;1251;97560;-75
2024/02/28 01:36:11;;;;;;;35.50;18.80;;;;;;;7.07;65.36;99117.64;105768;1254;97221;-76
2024/02/28 01:38:38;;;;;;;35.50;19.30;;;;;;;7.08;65.25;99118.12;105745;1254;96577;-76
2024/02/28 01:41:05;;;;;;;;;;;;;;;7.08;65.29;99120.38;105630;1257;96735;-75
2024/02/28 01:43:32;;;;;;;34.20;18.00;;;;;;;7.07;65.56;99118.35;105532;1264;97197;-75
2024/02/28 01:46:05;;;;;;;37.70;19.70;;;;;;;7.07;65.08;99117.29;105603;1255;96604;-76
2024/02/28 01:48:32;;;;;;;37.80;19.80;;;;;;;7.05;65.34;99121.48;105615;1254;96597;-75
2024/02/28 01:50:58;;;;;;;36.30;19.70;;;;;;;7.02;65.20;99120.41;105292;1257;97442;-74
2024/02/28 01:53:25;;;;;;;;;;;;;;;6.99;65.49;99119.46;105430;1256;96529;-76
2024/02/28 01:55:52;;;;;;;33.30;18.10;;;;;;;6.95;65.20;99123.61;105487;1251;96590;-75
2024/02/28 01:58:19;;;;;;;33.20;18.30;;;;;;;6.91;64.96;99125.41;105510;1257;96615;-76
2024/02/28 02:00:47;;;;;;;35.60;19.60;;;;;;;6.87;64.86;99125.12;105561;1265;96600;-76
2024/02/28 02:03:13;;;;;;;34.60;19.10;;;;;;;6.84;64.93;99128.10;105795;1254;96646;-76
2024/02/28 02:05:42;;;;;;;36.60;20.20;;;;;;;6.81;64.77;99125.42;105523;1258;97147;-75
2024/02/28 02:08:09;;;;;;;34.80;20.10;;;;;;;6.78;65.09;99125.77;105494;1257;96600;-75
2024/02/28 02:10:36;;;;;;;33.60;19.20;;;;;;;6.76;65.33;99124.33;105383;1260;96596;-76
2024/02/28 02:13:05;;;;;;;;;;;;;;;6.71;65.47;99123.37;105757;1256;97626;-75
2024/02/28 02:15:32;;;;;;;30.00;17.70;;;;;;;6.65;65.59;99121.91;105791;1264;97258;-74
2024/02/28 02:17:58;;;;;;;34.10;17.40;;;;;;;6.61;65.46;99118.95;105444;1265;97115;-75
2024/02/28 02:20:28;;;;;;;29.30;17.00;;;;;;;6.60;65.72;99122.02;105640;1257;96661;-74
2024/02/28 02:22:56;;;;;;;33.40;17.80;;;;;;;6.58;65.81;99120.36;105525;1257;96510;-75
2024/02/28 02:25:22;;;;;;;34.50;17.70;;;;;;;6.59;65.84;99119.65;105526;1252;97997;-76
2024/02/28 02:27:49;;;;;;;35.90;17.80;;;;;;;6.58;66.05;99117.89;105419;1260;96866;-74
2024/02/28 02:30:15;;;;;;;33.00;16.40;;;;;;;6.59;65.96;99118.40;105710;1255;96571;-75
2024/02/28 02:32:42;;;;;;;30.60;17.50;;;;;;;6.56;65.68;99119.45;105314;1257;98018;-75
2024/02/28 02:35:08;;;;;;;33.00;17.40;;;;;;;6.51;65.85;99121.27;105744;1255;109593;-75
2024/02/28 02:37:35;;;;;;;;;;;;;;;6.51;66.17;99118.65;105688;1261;97688;-75
2024/02/28 02:40:02;;;;;;;27.50;16.10;;;;;;;6.52;66.11;99116.67;105690;1260;97511;-75
2024/02/28 02:42:28;;;;;;;32.10;17.60;;;;;;;6.52;65.89;99118.55;105726;1252;96648;-75
2024/02/28 02:44:54;;;;;;;;;;;;;;;6.53;66.32;99118.00;105645;1257;96666;-76
2024/02/28 02:47:21;;;;;;;31.50;17.50;;;;;;;6.54;66.43;99120.60;105510;1264;96612;-76
2024/02/28 02:49:47;;;;;;;30.40;17.30;;;;;;;6.59;66.29;99118.95;105275;1254;97170;-76
2024/02/28 02:52:13;;;;;;;;;;;;;;;6.60;66.24;99122.52;105689;1264;96679;-75
2024/02/28 02:54:40;;;;;;;31.50;16.30;;;;;;;6.60;66.43;99122.73;105456;1257;96678;-74
2024/02/28 02:57:06;;;;;;;;;;;;;;;6.62;66.44;99121.55;105591;1264;96511;-76
2024/02/28 02:59:33;;;;;;;31.30;16.80;;;;;;;6.62;66.67;99121.92;105362;1257;96670;-76
2024/02/28 03:01:59;;;;;;;;;;;;;;;6.64;66.69;99126.90;105557;1257;96592;-75
2024/02/28 03:04:26;;;;;;;26.60;15.40;;;;;;;6.67;66.90;99125.69;105801;1256;96898;-75
2024/02/28 03:06:52;;;;;;;;;;;;;;;6.73;66.61;99121.64;105579;1257;96602;-75
2024/02/28 03:09:19;;;;;;;30.70;14.30;;;;;;;6.78;66.74;99121.36;105572;1257;96603;-75
2024/02/28 03:11:45;;;;;;;31.70;16.90;;;;;;;6.81;66.32;99114.13;105660;1257;96678;-75
2024/02/28 03:14:12;;;;;;;;;;;;;;;6.80;66.19;99118.79;105743;1257;96679;-77
2024/02/28 03:16:42;;;;;;;34.70;17.50;;;;;;;6.77;66.84;99114.02;105609;1264;96609;-74
2024/02/28 03:19:10;;;;;;;30.40;17.10;;;;;;;6.82;67.02;99111.48;105269;1265;108525;-74
2024/02/28 03:21:37;;;;;;;33.20;17.50;;;;;;;6.89;66.87;99117.61;105353;1254;96664;-75
2024/02/28 03:24:03;;;;;;;29.70;16.70;;;;;;;6.94;67.05;99116.45;105668;1257;96595;-74
2024/02/28 03:26:30;;;;;;;28.20;14.60;;;;;;;6.96;66.93;99117.33;105909;1256;96596;-73
2024/02/28 03:28:56;;;;;;;;;;;;;;;6.98;66.70;99117.23;104908;1266;96696;-74
2024/02/28 03:31:23;;;;;;;25.70;15.90;;;;;;;6.97;66.60;99120.48;105593;1257;96731;-75
2024/02/28 03:33:49;;;;;;;;;;;;;;;6.98;66.80;99119.02;105283;1259;96654;-75
2024/02/28 03:36:16;;;;;;;28.40;14.10;;;;;;;6.96;67.19;99117.17;105722;1256;97109;-75
2024/02/28 03:38:42;;;;;;;25.40;16.00;;;;;;;6.99;67.04;99116.84;105472;1261;97530;-74
2024/02/28 03:41:09;;;;;;;29.30;16.20;;;;;;;7.03;67.22;99115.39;105889;1265;98163;-76
2024/02/28 03:43:35;;;;;;;31.80;17.50;;;;;;;7.08;67.28;99116.69;105582;1256;96529;-75
2024/02/28 03:46:02;;;;;;;;;;;;;;;7.12;67.29;99115.39;105344;1256;96674;-75
2024/02/28 03:48:28;;;;;;;30.10;14.80;;;;;;;7.12;67.31;99122.11;105730;1255;96594;-75
2024/02/28 03:50:55;;;;;;;;;;;;;;;7.13;67.22;99119.73;105717;1257;97212;-76
2024/02/28 03:53:21;;;;;;;29.00;15.20;;;;;;;7.12;67.01;99117.67;105551;1264;96590;-73
2024/02/28 03:55:48;;;;;;;;;;;;;;;7.13;67.27;99119.20;105180;1251;97216;-75
2024/02/28 03:58:17;;;;;;;27.20;15.20;;;;;;;7.15;67.52;99116.66;105238;1265;96592;-76
2024/02/28 04:00:46;;;;;;;32.00;16.60;;;;;;;7.19;67.34;99114.84;105736;1257;97228;-76
2024/02/28 04:03:14;;;;;;;31.20;16.40;;;;;;;7.24;67.51;99115.27;105679;1263;96586;-75
2024/02/28 04:05:40;;;;;;;29.50;14.90;;;;;;;7.28;67.47;99122.92;105735;1256;96497;-75
2024/02/28 04:08:07;;;;;;;29.40;17.40;;;;;;;7.31;67.28;99126.68;105993;1255;97025;-75
2024/02/28 04:10:33;;;;;;;;;;;;;;;7.32;67.53;99125.55;105722;1266;97512;-74
2024/02/28 04:13:00;;;;;;;30.00;16.10;;;;;;;7.33;67.67;99123.56;105575;1257;96605;-77
2024/02/28 04:15:27;;;;;;;27.10;15.30;;;;;;;7.36;67.53;99127.63;105614;1257;96609;-76
2024/02/28 04:17:53;;;;;;;31.50;16.40;;;;;;;7.38;67.73;99131.04;105738;1254;96490;-75
2024/02/28 04:20:20;;;;;;;29.30;15.70;;;;;;;7.40;67.58;99135.64;105521;1257;96587;-76
2024/02/28 04:22:46;;;;;;;27.60;15.50;;;;;;;7.42;67.57;99139.78;105720;1263;96639;-75
2024/02/28 04:25:13;;;;;;;26.10;15.40;;;;;;;7.44;67.75;99143.38;105752;1267;96669;-76
2024/02/28 04:27:39;;;;;;;25.30;13.00;;;;;;;7.46;67.80;99142.05;105245;1265;110039;-75
2024/02/28 04:30:07;;;;;;;21.30;11.50;;;;;;;7.49;67.68;99143.84;105857;1257;96605;-74
2024/02/28 04:32:35;;;;;;;21.30;12.40;;;;;;;7.51;67.85;99142.95;105557;1254;96677;-75
2024/02/28 04:35:03;;;;;;;26.50;14.80;;;;;;;7.53;67.63;99151.68;105468;1264;96628;-75
2024/02/28 04:37:29;;;;;;;23.80;14.00;;;;;;;7.54;67.59;99149.85;105558;1256;97912;-75
2024/02/28 04:39:56;;;;;;;21.90;13.50;;;;;;;7.52;67.54;99152.23;105761;1257;96581;-75
2024/02/28 04:42:22;;;;;;;22.60;11.70;;;;;;;7.50;67.53;99149.73;105703;1256;97295;-76
2024/02/28 04:44:49;;;;;;;20.90;13.20;;;;;;;7.52;67.51;99148.56;105301;1254;96612;-76
2024/02/28 04:47:15;;;;;;;;;;;;;;;7.55;67.72;99147.52;105846;1256;96769;-76
2024/02/28 04:49:44;;;;;;;25.50;13.70;;;;;;;7.55;67.70;99150.14;105754;1257;109355;-75
2024/02/28 04:52:11;;;;;;;26.10;15.30;;;;;;;7.56;67.79;99155.39;105745;1266;96734;-74
2024/02/28 04:54:40;;;;;;;28.00;13.60;;;;;;;7.57;67.74;99151.98;105488;1260;97924;-73
2024/02/28 04:57:06;;;;;;;22.10;12.90;;;;;;;7.54;67.63;99152.52;105589;1267;97929;-71
2024/02/28 04:59:33;;;;;;;23.80;13.30;;;;;;;7.54;67.80;99154.94;104797;1257;96587;-75
2024/02/28 05:02:00;;;;;;;23.90;13.20;;;;;;;7.58;67.89;99154.92;105683;1257;97952;-75
2024/02/28 05:04:26;;;;;;;26.80;15.00;;;;;;;7.60;67.98;99157.60;105617;1254;96686;-73
2024/02/28 05:06:53;;;;;;;26.70;15.00;;;;;;;7.60;68.07;99158.14;104748;1264;96694;-75
2024/02/28 05:09:19;;;;;;;25.70;13.60;;;;;;;7.60;68.07;99158.66;105730;1254;97774;-78
2024/02/28 05:11:46;;;;;;;24.70;13.60;;;;;;;7.60;67.99;99164.31;105654;1256;96723;-82
2024/02/28 05:14:12;;;;;;;;;;;;;;;7.59;67.78;99167.57;105618;1257;97314;-81
2024/02/28 05:16:39;;;;;;;21.20;12.00;;;;;;;7.56;68.16;99166.14;105904;1264;96639;-76
2024/02/28 05:19:05;;;;;;;22.30;13.30;;;;;;;7.59;68.15;99166.33;105755;1257;96590;-75
2024/02/28 05:21:40;;;;;;;21.20;11.40;;;;;;;7.60;68.08;99166.24;105621;1264;98039;-75
2024/02/28 05:24:07;;;;;;;19.00;11.30;;;;;;;7.62;68.12;99171.79;105681;1256;96692;-74
2024/02/28 05:26:38;;;;;;;15.50;9.30;;;;;;;7.63;68.17;99169.96;105426;1257;96738;-74
2024/02/28 05:29:05;;;;;;;16.50;8.90;;;;;;;7.67;67.95;99168.50;108695;1251;94579;-74
2024/02/28 05:31:32;;;;;;;13.70;7.70;;;;;;;7.76;68.10;99166.40;108718;1257;94661;-75
2024/02/28 05:34:01;;;;;;;18.60;9.70;;;;;;;7.85;68.06;99168.16;106313;1257;96663;-75
2024/02/28 05:36:30;;;;;;;17.30;9.10;;;;;;;7.95;68.05;99164.95;105828;1264;97851;-76
2024/02/28 05:38:57;;;;;;;20.10;9.40;;;;;;;8.03;67.96;99164.39;105745;1257;107449;-74
2024/02/28 05:41:24;;;;;;;16.60;7.80;;;;;;;8.10;68.05;99163.13;105746;1256;96503;-76
2024/02/28 05:43:51;;;;;;;14.10;7.90;;;;;;;8.15;68.06;99163.86;105604;1255;96761;-77
2024/02/28 05:46:18;;;;;;;12.90;7.00;;;;;;;8.19;67.93;99169.48;105701;1254;96590;-76
2024/02/28 05:48:45;;;;;;;14.90;8.00;;;;;;;8.22;68.06;99171.95;105844;1257;96519;-75
2024/02/28 05:51:13;;;;;;;13.10;7.60;;;;;;;8.25;67.93;99173.39;105627;1256;97301;-75
2024/02/28 05:53:40;;;;;;;11.40;6.70;;;;;;;8.28;68.00;99174.60;105718;1254;96562;-75
2024/02/28 05:56:14;;;;;;;15.00;7.50;;;;;;;8.30;67.94;99177.80;105722;1257;96620;-76
2024/02/28 05:58:42;;;;;;;10.10;6.30;;;;;;;8.34;68.01;99182.02;105516;1261;109901;-76
2024/02/28 06:01:12;;;;;;;13.40;7.20;;;;;;;8.37;67.99;99183.59;105907;1256;97847;-76
2024/02/28 06:03:39;;;;;;;11.30;6.00;;;;;;;8.41;68.12;99181.40;105603;1260;107684;-75
2024/02/28 06:06:06;;;;;;;11.60;6.50;;;;;;;8.44;68.11;99181.91;105715;1264;96869;-73
2024/02/28 06:08:34;;;;;;;15.20;6.90;;;;;;;8.48;67.97;99186.11;107391;1254;96584;-75
2024/02/28 06:11:01;;;;;;;12.40;7.50;;;;;;;8.50;68.06;99185.48;106181;1254;96576;-73
2024/02/28 06:13:29;;;;;;;12.00;6.60;;;;;;;8.51;68.08;99191.42;105686;1264;96582;-74
2024/02/28 06:15:56;;;;;;;15.80;7.60;;;;;;;8.52;68.04;99194.68;105476;1265;97045;-75
2024/02/28 06:18:26;;;;;;;24.00;12.80;;;;;;;8.51;67.98;99195.70;105512;1257;96591;-74
2024/02/28 06:20:56;;;;;;;26.70;15.30;;;;;;;8.43;67.85;99195.23;105597;1254;96504;-73
2024/02/28 06:23:23;;;;;;;24.40;15.50;;;;;;;8.36;67.96;99195.69;105620;1255;109876;-75
2024/02/28 06:25:56;;;;;;;29.10;16.80;;;;;;;8.29;67.86;99196.98;105720;1255;96527;-76
2024/02/28 06:28:23;;;;;;;32.90;16.90;;;;;;;8.23;68.11;99197.86;105721;1251;107549;-75
2024/02/28 06:30:49;;;;;;;34.40;17.60;;;;;;;8.15;68.31;99198.88;105671;1255;97256;-75
2024/02/28 06:33:16;;;;;;;28.10;15.70;;;;;;;8.11;68.41;99206.20;105508;1267;96671;-75
2024/02/28 06:35:43;;;;;;;28.80;16.00;;;;;;;8.12;68.28;99208.60;105820;1254;96558;-74
2024/02/28 06:38:09;;;;;;;28.90;16.80;;;;;;;8.11;68.38;99206.52;105530;1256;96680;-74
2024/02/28 06:40:36;;;;;;;30.10;16.70;;;;;;;8.10;68.55;99204.11;105506;1275;96619;-74
2024/02/28 06:43:02;;;;;;;27.70;17.20;;;;;;;8.09;68.44;99205.23;105298;1255;96721;-74
2024/02/28 06:45:29;;;;;;;26.40;15.40;;;;;;;8.08;68.52;99204.23;105242;1267;97943;-75
2024/02/28 06:47:55;;;;;;;29.10;16.10;;;;;;;8.08;68.60;99203.17;105441;1256;96595;-74
2024/02/28 06:50:22;;;;;;;24.90;15.10;;;;;;;8.08;68.76;99199.98;105287;1254;97684;-74
2024/02/28 06:52:48;;;;;;;26.60;15.80;;;;;;;8.12;68.66;99203.81;105643;1256;96494;-75
2024/02/28 06:55:15;;;;;;;31.20;16.90;;;;;;;8.15;68.65;99205.20;105701;1254;97918;-75
2024/02/28 06:57:42;;;;;;;25.10;15.10;;;;;;;8.17;68.76;99207.55;105362;1265;96686;-74
2024/02/28 07:00:11;;;;;;;26.20;15.90;;;;;;;8.18;68.76;99211.55;105383;1257;97537;-75
2024/02/28 07:02:38;;;;;;;34.80;18.70;;;;;;;8.18;68.46;99207.33;105704;1254;96507;-77
2024/02/28 07:05:06;;;;;;;27.10;15.50;;;;;;;8.15;68.62;99208.58;105480;1256;97077;-74
2024/02/28 07:07:33;;;;;;;32.10;17.00;;;;;;;8.15;68.54;99202.42;105579;1251;96584;-75
2024/02/28 07:10:02;;;;;;;31.80;16.80;;;;;;;8.17;68.93;99206.01;105480;1264;97302;-74
2024/02/28 07:12:29;;;;;;;30.10;16.70;;;;;;;8.19;68.95;99206.23;105718;1256;107252;-75
2024/02/28 07:14:55;;;;;;;29.10;16.00;;;;;;;8.20;68.75;99210.05;105562;1257;97549;-74
2024/02/28 07:17:22;;;;;;;;;;;;;;;8.20;68.73;99211.44;105575;1257;96587;-74
2024/02/28 07:19:48;;;;;;;29.50;16.90;;;;;;;8.19;68.92;99213.41;105460;1257;96583;-74
2024/02/28 07:22:15;;;;;;;27.70;17.00;;;;;;;8.22;69.11;99213.84;105524;1264;96732;-74
2024/02/28 07:24:41;;;;;;;33.20;18.40;;;;;;;8.25;69.18;99217.02;105205;1251;96670;-75
2024/02/28 07:27:08;;;;;;;32.60;17.70;;;;;;;8.27;69.27;99220.21;105398;1251;96674;-75
2024/02/28 07:29:36;;;;;;;36.60;19.50;;;;;;;8.31;69.27;99215.73;105592;1254;96576;-74
2024/02/28 07:32:03;;;;;;;32.70;18.70;;;;;;;8.35;69.22;99209.12;105785;1261;96703;-75
2024/02/28 07:34:30;;;;;;;31.30;17.60;;;;;;;8.39;69.31;99210.66;105599;1251;96535;-74
2024/02/28 07:36:56;;;;;;;29.30;15.90;;;;;;;8.46;69.34;99214.99;105765;1254;96608;-74
2024/02/28 07:39:25;;;;;;;32.50;17.20;;;;;;;8.55;69.41;99221.73;105542;1251;97168;-77
2024/02/28 07:41:52;;;;;;;22.40;13.70;;;;;;;8.65;69.40;99218.83;105215;1261;96734;-74
2024/02/28 07:44:22;;;;;;;27.70;17.50;;;;;;;8.74;69.57;99214.38;105657;1257;96584;-74
2024/02/28 07:46:50;;;;;;;28.50;16.40;;;;;;;8.81;69.36;99211.50;105668;1251;97918;-74
2024/02/28 07:49:17;;;;;;;29.10;17.90;;;;;;;8.87;69.50;99214.64;105735;1254;96581;-74
2024/02/28 07:51:43;;;;;;;22.10;13.40;;;;;;;8.91;69.51;99210.70;105262;1257;96606;-74
2024/02/28 07:54:10;;;;;;;31.60;16.20;;;;;;;8.96;69.42;99213.59;105393;1258;96631;-75
2024/02/28 07:56:36;;;;;;;32.80;18.80;;;;;;;8.99;69.46;99218.67;105656;1254;97489;-75
2024/02/28 07:59:02;;;;;;;;;;;;;;;9.00;69.38;99219.64;105515;1254;96589;-73
2024/02/28 08:01:30;;;;;;;35.90;18.10;;;;;;;8.99;69.49;99222.70;105755;1250;97489;-75
2024/02/28 08:03:57;;;;;;;32.80;17.90;;;;;;;9.00;69.48;99225.86;105837;1251;96598;-74
2024/02/28 08:06:24;;;;;;;32.90;18.50;;;;;;;9.03;69.58;99226.20;105748;1253;97054;-74
2024/02/28 08:08:50;;;;;;;30.60;16.70;;;;;;;9.08;69.59;99224.65;105868;1256;97524;-74
2024/02/28 08:11:18;;;;;;;31.40;17.50;;;;;;;9.13;69.55;99225.91;105735;1264;96673;-73
2024/02/28 08:13:45;;;;;;;28.60;16.70;;;;;;;9.17;69.59;99226.17;105706;1254;97543;-73
2024/02/28 08:16:11;;;;;;;30.40;16.90;;;;;;;9.24;69.58;99228.22;105613;1256;96606;-74
2024/02/28 08:18:38;;;;;;;32.10;16.00;;;;;;;9.30;69.61;99219.86;105667;1255;107563;-75
2024/02/28 08:21:05;;;;;;;24.80;14.80;;;;;;;9.37;69.61;99220.32;105655;1257;96613;-73
2024/02/28 08:23:31;;;;;;;22.90;11.80;;;;;;;9.46;69.87;99225.59;105723;1265;96591;-75
2024/02/28 08:25:58;;;;;;;13.40;9.00;;;;;;;9.59;69.75;99225.25;105695;1257;96645;-74
2024/02/28 08:28:24;;;;;;;12.30;6.90;;;;;;;9.75;69.83;99230.77;105521;1274;108717;-75
2024/02/28 08:30:51;;;;;;;14.80;6.60;;;;;;;9.90;69.70;99232.92;105705;1264;96609;-74
2024/02/28 08:33:17;;;;;;;13.30;7.50;;;;;;;10.04;69.80;99234.83;105488;1256;96585;-74
2024/02/28 08:35:49;;;;;;;12.30;7.00;;;;;;;10.17;69.80;99231.48;105579;1251;110034;-74
2024/02/28 08:38:16;;;;;;;12.10;6.80;;;;;;;10.32;69.63;99229.41;105611;1257;96597;-74
2024/02/28 08:40:42;;;;;;;13.60;7.70;;;;;;;10.45;69.82;99238.63;105272;1267;96684;-73
2024/02/28 08:43:09;;;;;;;13.20;7.40;;;;;;;10.56;69.72;99237.88;105484;1251;97253;-74
2024/02/28 08:45:35;;;;;;;16.10;7.70;;;;;;;10.67;69.76;99228.98;105769;1257;96599;-74
2024/02/28 08:48:06;;;;;;;13.30;7.30;;;;;;;10.80;69.80;99229.81;105546;1256;98016;-74
2024/02/28 08:50:33;;;;;;;16.10;7.10;;;;;;;10.92;69.74;99229.69;105958;1254;106923;-75
2024/02/28 08:52:59;;;;;;;13.60;6.30;;;;;;;11.02;69.78;99225.10;105459;1254;97901;-74
2024/02/28 08:55:26;;;;;;;13.30;7.20;;;;;;;11.13;69.70;99226.43;105674;1275;96669;-74
2024/02/28 08:57:52;;;;;;;10.90;6.10;;;;;;;11.23;69.68;99229.30;105823;1256;96532;-74
2024/02/28 09:00:21;;;;;;;9.10;6.30;;;;;;;11.30;69.64;99229.95;105767;1253;107176;-74
2024/02/28 09:02:48;;;;;;;13.00;6.50;;;;;;;11.39;69.64;99224.39;105557;1256;96621;-76
2024/02/28 09:05:14;;;;;;;9.50;6.30;;;;;;;11.50;69.67;99222.88;105392;1254;96707;-75
2024/02/28 09:07:41;;;;;;;11.60;6.50;;;;;;;11.60;69.71;99218.05;105583;1254;96635;-74
2024/02/28 09:10:08;;;;;;;12.30;7.00;;;;;;;11.69;69.77;99218.23;105599;1257;96618;-75
2024/02/28 09:12:34;;;;;;;11.40;5.90;;;;;;;11.79;69.77;99220.55;105504;1256;97912;-77
2024/02/28 09:15:01;;;;;;;9.70;6.20;;;;;;;11.90;69.66;99222.33;105370;1257;96676;-74
2024/02/28 09:17:27;;;;;;;12.40;6.80;;;;;;;12.02;69.69;99220.26;105496;1255;97917;-74
2024/02/28 09:19:54;;;;;;;13.00;7.40;;;;;;;12.12;69.64;99220.71;105346;1265;97979;-75
2024/02/28 09:22:21;;;;;;;12.90;6.40;;;;;;;12.22;69.68;99219.27;105501;1257;96658;-75
2024/02/28 09:24:49;;;;;;;11.40;6.20;;;;;;;12.29;69.59;99220.34;105366;1250;96604;-74
2024/02/28 09:27:18;;;;;;;13.50;6.30;;;;;;;12.36;69.53;99221.39;105278;1257;109951;-76
2024/02/28 09:29:44;;;;;;;10.40;6.30;;;;;;;12.44;69.31;99224.83;105462;1254;96530;-76
2024/02/28 09:32:11;;;;;;;13.50;7.10;;;;;;;12.50;69.36;99226.70;105639;1257;96611;-75
2024/02/28 09:34:38;;;;;;;9.60;6.30;;;;;;;12.56;69.42;99225.34;105690;1257;97503;-74
2024/02/28 09:37:05;;;;;;;11.00;6.00;;;;;;;12.63;69.27;99224.43;105650;1258;96596;-74
2024/02/28 09:39:31;;;;;;;13.60;7.40;;;;;;;12.68;69.36;99228.30;105810;1251;97913;-76
2024/02/28 09:41:58;;;;;;;11.40;6.90;;;;;;;12.75;69.39;99221.17;105809;1250;96599;-75
2024/02/28 09:44:26;;;;;;;12.40;6.40;;;;;;;12.82;69.26;99223.69;105820;1250;97531;-74
2024/02/28 09:46:53;;;;;;;16.30;8.30;;;;;;;12.89;69.19;99223.63;105610;1256;96584;-75
2024/02/28 09:49:20;;;;;;;12.80;6.80;;;;;;;12.95;69.09;99225.84;105548;1256;97895;-75
2024/02/28 09:51:52;;;;;;;10.30;7.10;;;;;;;13.00;68.91;99229.23;105223;1254;96615;-74
2024/02/28 09:54:19;;;;;;;13.30;6.20;;;;;;;13.05;68.77;99236.65;105406;1254;107571;-74
2024/02/28 09:56:48;;;;;;;12.20;6.80;;;;;;;13.09;68.80;99237.15;105510;1256;96526;-74
2024/02/28 09:59:17;;;;;;;13.70;7.70;;;;;;;13.16;68.84;99236.86;105739;1254;96596;-75
2024/02/28 10:01:53;;;;;;;11.10;7.00;;;;;;;13.20;68.70;99236.13;105420;1253;110598;-74
2024/02/28 10:04:19;;;;;;;12.40;6.70;;;;;;;13.26;68.57;99241.73;105500;1257;96650;-74
2024/02/28 10:06:48;;;;;;;16.20;7.70;;;;;;;13.29;68.40;99241.67;105630;1256;96604;-73
2024/02/28 10:09:16;;;;;;;11.90;7.00;;;;;;;13.32;68.29;99245.86;105658;1251;96609;-74
2024/02/28 10:11:44;;;;;;;12.60;7.40;;;;;;;13.34;68.18;99245.67;105591;1256;96559;-74
2024/02/28 10:14:20;;;;;;;12.60;7.90;;;;;;;13.36;68.29;99244.65;105627;1255;109859;-74
2024/02/28 10:16:47;;;;;;;12.50;6.90;;;;;;;13.39;68.12;99245.62;105400;1257;97963;-75
2024/02/28 10:19:13;;;;;;;9.80;6.70;;;;;;;13.42;67.92;99248.50;105303;1265;97950;-72
2024/02/28 10:21:40;;;;;;;12.80;6.90;;;;;;;13.46;67.93;99249.23;105621;1257;97891;-74
2024/02/28 10:24:07;;;;;;;17.60;9.20;;;;;;;13.51;67.82;99251.29;105546;1251;96631;-74
2024/02/28 10:26:42;;;;;;;16.40;8.60;;;;;;;13.55;67.71;99249.17;105626;1256;97915;-74
2024/02/28 10:29:09;;;;;;;12.20;7.70;;;;;;;13.59;67.72;99251.40;105435;1256;108249;-75
2024/02/28 10:31:38;;;;;;;11.50;7.00;;;;;;;13.61;67.53;99252.79;105551;1251;96590;-74
2024/02/28 10:34:06;;;;;;;13.70;8.10;;;;;;;13.64;67.34;99247.79;105671;1258;97614;-74
2024/02/28 10:36:34;;;;;;;12.40;7.60;;;;;;;13.65;67.31;99251.42;105542;1253;109845;-74
2024/02/28 10:39:01;;;;;;;15.10;8.80;;;;;;;13.67;67.33;99251.45;105764;1254;96606;-73
2024/02/28 10:41:28;;;;;;;13.00;7.20;;;;;;;13.69;67.15;99254.13;105749;1256;96590;-73
2024/02/28 10:43:57;;;;;;;14.40;8.30;;;;;;;13.74;67.00;99253.21;105557;1254;96573;-75
2024/02/28 10:46:23;;;;;;;14.40;9.10;;;;;;;13.76;66.99;99253.38;105636;1255;96588;-74
2024/02/28 10:49:04;;;;;;;14.40;8.50;;;;;;;13.78;66.93;99253.02;105485;1257;109336;-73
2024/02/28 10:51:35;;;;;;;13.30;7.50;;;;;;;13.80;66.85;99249.45;105644;1250;96597;-75
2024/02/28 10:54:12;;;;;;;11.90;7.40;;;;;;;13.82;66.73;99246.64;105671;1264;107250;-74
2024/02/28 10:56:43;;;;;;;12.60;7.80;;;;;;;13.80;66.31;99249.80;105495;1253;96593;-74
2024/02/28 10:59:12;;;;;;;14.50;8.10;;;;;;;13.81;66.28;99251.67;105645;1257;97829;-73
2024/02/28 11:03:56;;;;;;;13.70;7.00;;;;;;;13.86;66.29;99249.66;102807;1290;649860;-76
2024/02/28 11:06:32;;;;;;;13.50;8.40;;;;;;;13.88;65.72;99250.82;105043;1263;94442;-76
2024/02/28 11:09:05;;;;;;;13.20;7.40;;;;;;;13.89;65.79;99249.14;105351;1259;95222;-75
2024/02/28 11:11:33;;;;;;;14.40;7.80;;;;;;;13.89;65.82;99246.23;105402;1259;107513;-73
2024/02/28 11:14:03;;;;;;;15.80;8.30;;;;;;;13.93;65.69;99248.19;105473;1256;94300;-74
2024/02/28 11:16:44;;;;;;;13.90;7.90;;;;;;;13.94;65.50;99249.52;98678;1252;9328160;-75
2024/02/28 11:19:24;;;;;;;12.80;7.60;;;;;;;13.94;65.31;99245.48;105643;1256;106726;-74
2024/02/28 11:21:55;;;;;;;10.60;7.00;;;;;;;13.93;65.31;99240.36;105718;1254;94376;-75
2024/02/28 11:24:28;;;;;;;13.40;7.50;;;;;;;13.94;65.28;99244.42;105279;1256;107660;-75
2024/02/28 11:26:55;;;;;;;12.30;7.00;;;;;;;13.94;65.26;99245.68;105606;1254;94382;-76